createdAt,value
2024-05-09T00:00:02.319Z,99975.13
2024-05-09T00:02:54.894Z,99956.81
2024-05-09T00:05:42.028Z,99957.63
2024-05-09T00:08:28.900Z,99951.34
2024-05-09T00:11:16.417Z,99980.78
2024-05-09T00:14:03.074Z,99974.59
2024-05-09T00:16:49.756Z,99959.72
2024-05-09T00:19:36.394Z,99980.50
2024-05-09T00:22:22.848Z,99971.75
2024-05-09T00:25:09.573Z,99966.50
2024-05-09T00:27:56.154Z,99912.34
2024-05-09T00:30:42.810Z,99954.00
2024-05-09T00:33:29.662Z,99968.81
2024-05-09T00:36:16.145Z,99961.81
2024-05-09T00:39:02.792Z,99964.41
2024-05-09T00:41:49.600Z,99965.97
2024-05-09T00:44:36.292Z,99936.25
2024-05-09T00:47:24.047Z,99950.16
2024-05-09T00:50:15.992Z,99953.63
2024-05-09T00:53:12.140Z,99956.78
2024-05-09T00:55:59.317Z,99942.81
2024-05-09T00:58:45.597Z,99919.03
2024-05-09T01:01:32.389Z,99919.81
2024-05-09T01:04:19.019Z,99969.31
2024-05-09T01:07:05.512Z,99954.47
2024-05-09T01:09:52.084Z,99940.72
2024-05-09T01:12:39.118Z,99937.63
2024-05-09T01:15:25.511Z,99965.06
2024-05-09T01:18:13.526Z,99944.63
2024-05-09T01:21:00.594Z,99963.69
2024-05-09T01:23:47.216Z,99936.47
2024-05-09T01:26:33.965Z,99956.41
2024-05-09T01:29:20.598Z,99965.75
2024-05-09T01:32:07.448Z,99948.25
2024-05-09T01:34:53.818Z,99952.75
2024-05-09T01:37:40.399Z,99960.38
2024-05-09T01:40:36.364Z,99954.13
2024-05-09T01:43:25.777Z,99959.13
2024-05-09T01:46:16.515Z,99908.66
2024-05-09T01:49:04.539Z,99948.78
2024-05-09T01:51:51.185Z,99957.22
2024-05-09T01:54:37.859Z,99874.63
2024-05-09T01:57:24.455Z,99916.28
2024-05-09T02:00:15.652Z,99957.25
2024-05-09T02:03:02.538Z,99922.25
2024-05-09T02:05:52.473Z,99975.88
2024-05-09T02:08:39.524Z,99982.50
2024-05-09T02:11:26.319Z,99962.75
2024-05-09T02:14:13.130Z,99968.75
2024-05-09T02:16:59.425Z,99959.78
2024-05-09T02:19:46.056Z,99956.22
2024-05-09T02:22:32.863Z,99940.78
2024-05-09T02:25:21.218Z,99967.97
2024-05-09T02:28:08.126Z,99966.75
2024-05-09T02:30:54.638Z,99923.97
2024-05-09T02:33:41.287Z,99967.47
2024-05-09T02:36:27.792Z,99956.72
2024-05-09T02:39:14.600Z,99960.38
2024-05-09T02:42:01.139Z,99934.72
2024-05-09T02:44:47.796Z,99965.06
2024-05-09T02:47:34.669Z,99961.53
2024-05-09T02:50:29.705Z,99959.53
2024-05-09T02:53:23.422Z,99959.66
2024-05-09T02:56:10.078Z,99955.38
2024-05-09T02:58:56.870Z,99942.91
2024-05-09T03:01:43.228Z,99901.88
2024-05-09T03:04:29.646Z,99931.31
2024-05-09T03:07:17.825Z,99890.53
2024-05-09T03:10:12.205Z,99957.59
2024-05-09T03:13:08.460Z,99908.44
2024-05-09T03:15:55.033Z,99971.34
2024-05-09T03:18:41.727Z,99978.13
2024-05-09T03:21:28.336Z,99971.06
2024-05-09T03:24:14.907Z,99960.47
2024-05-09T03:27:02.500Z,99948.25
2024-05-09T03:29:48.915Z,99976.13
2024-05-09T03:32:35.651Z,99952.47
2024-05-09T03:35:22.081Z,99979.66
2024-05-09T03:38:08.723Z,99968.22
2024-05-09T03:40:55.318Z,99957.72
2024-05-09T03:43:41.946Z,99963.13
2024-05-09T03:46:28.767Z,99947.09
2024-05-09T03:49:15.513Z,99954.78
2024-05-09T03:52:05.093Z,99942.91
2024-05-09T03:54:51.739Z,99958.44
2024-05-09T03:57:38.422Z,99928.00
2024-05-09T04:00:31.576Z,99980.03
2024-05-09T04:03:24.724Z,99978.78
2024-05-09T04:06:11.915Z,99966.53
2024-05-09T04:08:58.458Z,99941.25
2024-05-09T04:11:45.184Z,99953.59
2024-05-09T04:14:31.828Z,99977.00
2024-05-09T04:17:18.413Z,99957.81
2024-05-09T04:20:08.323Z,99975.56
2024-05-09T04:22:54.786Z,99967.97
2024-05-09T04:25:43.846Z,99981.31
2024-05-09T04:28:30.198Z,99974.13
2024-05-09T04:31:16.689Z,99982.41
2024-05-09T04:34:03.461Z,99902.78
2024-05-09T04:36:49.760Z,99921.47
2024-05-09T04:39:36.474Z,99984.56
2024-05-09T04:42:23.025Z,99957.50
2024-05-09T04:45:09.591Z,99930.44
2024-05-09T04:47:56.538Z,99975.25
2024-05-09T04:50:43.542Z,99973.88
2024-05-09T04:53:29.945Z,99988.91
2024-05-09T04:56:16.700Z,99976.31
2024-05-09T04:59:03.387Z,99955.41
2024-05-09T05:01:50.020Z,99971.59
2024-05-09T05:04:36.653Z,99996.28
2024-05-09T05:07:23.372Z,99992.72
2024-05-09T05:10:14.893Z,99927.72
2024-05-09T05:13:21.002Z,99975.50
2024-05-09T05:16:09.133Z,99965.81
2024-05-09T05:18:56.374Z,99984.06
2024-05-09T05:21:43.134Z,99984.16
2024-05-09T05:24:29.617Z,99976.56
2024-05-09T05:27:16.809Z,99978.66
2024-05-09T05:30:04.618Z,99988.31
2024-05-09T05:32:52.683Z,99953.63
2024-05-09T05:35:39.784Z,100009.09
2024-05-09T05:38:28.187Z,99973.38
2024-05-09T05:41:15.441Z,99977.31
2024-05-09T05:44:01.864Z,99968.16
2024-05-09T05:46:48.537Z,99965.06
2024-05-09T05:49:35.291Z,100003.75
2024-05-09T05:52:21.692Z,99978.50
2024-05-09T05:55:08.171Z,99985.44
2024-05-09T05:57:54.836Z,99988.09
2024-05-09T06:00:42.678Z,99944.53
2024-05-09T06:03:29.686Z,99984.53
2024-05-09T06:06:16.223Z,99988.97
2024-05-09T06:09:02.815Z,100005.66
2024-05-09T06:11:49.571Z,99987.50
2024-05-09T06:14:36.219Z,100012.94
2024-05-09T06:17:22.771Z,99985.16
2024-05-09T06:20:13.464Z,100008.03
2024-05-09T06:23:07.206Z,99997.63
2024-05-09T06:25:53.670Z,99977.81
2024-05-09T06:28:40.345Z,99925.88
2024-05-09T06:31:26.823Z,100016.34
2024-05-09T06:34:13.646Z,99999.00
2024-05-09T06:37:00.045Z,99993.13
2024-05-09T06:39:46.768Z,99984.44
2024-05-09T06:42:33.229Z,99996.81
2024-05-09T06:45:19.923Z,100017.78
2024-05-09T06:48:07.444Z,99948.31
2024-05-09T06:50:54.241Z,99999.66
2024-05-09T06:53:40.921Z,100004.03
2024-05-09T06:56:27.217Z,100003.22
2024-05-09T06:59:13.785Z,99969.38
2024-05-09T07:02:00.499Z,99961.56
2024-05-09T07:04:47.344Z,100002.44
2024-05-09T07:07:33.651Z,99982.47
2024-05-09T07:10:28.509Z,99990.28
2024-05-09T07:13:19.011Z,100000.69
2024-05-09T07:16:05.505Z,99969.47
2024-05-09T07:18:55.050Z,100005.88
2024-05-09T07:21:41.480Z,99981.56
2024-05-09T07:24:28.204Z,99993.69
2024-05-09T07:27:15.036Z,99933.84
2024-05-09T07:30:01.580Z,99993.59
2024-05-09T07:32:48.322Z,99991.03
2024-05-09T07:35:35.825Z,99963.28
2024-05-09T07:38:22.582Z,99958.03
2024-05-09T07:41:09.142Z,99991.84
2024-05-09T07:43:55.918Z,99969.19
2024-05-09T07:53:30.360Z,99981.34
2024-05-09T07:55:29.177Z,99935.41
2024-05-09T07:58:15.693Z,99939.56
2024-05-09T08:01:05.274Z,99986.41
2024-05-09T08:03:53.963Z,99957.00
2024-05-09T08:06:40.248Z,99979.47
2024-05-09T08:09:26.849Z,99969.91
2024-05-09T08:12:14.210Z,99953.22
2024-05-09T08:15:00.863Z,99966.31
2024-05-09T08:17:47.757Z,99953.19
2024-05-09T08:20:35.455Z,99953.19
2024-05-09T08:23:23.597Z,99911.56
2024-05-09T08:26:11.055Z,99953.16
2024-05-09T08:28:57.754Z,99937.53
2024-05-09T08:31:44.407Z,99940.94
2024-05-09T08:34:30.776Z,99937.38
2024-05-09T08:37:22.378Z,99929.53
2024-05-09T08:40:19.906Z,99946.00
2024-05-09T08:43:15.336Z,99943.31
2024-05-09T08:46:02.728Z,99937.97
2024-05-09T08:48:50.286Z,99927.41
2024-05-09T08:51:36.763Z,99933.50
2024-05-09T08:54:23.294Z,99957.84
2024-05-09T08:57:09.931Z,99942.97
2024-05-09T09:00:00.486Z,99941.25
2024-05-09T09:02:49.928Z,99910.09
2024-05-09T09:05:38.905Z,99942.91
2024-05-09T09:08:26.997Z,99918.66
2024-05-09T09:11:13.643Z,99935.88
2024-05-09T09:14:00.163Z,99938.19
2024-05-09T09:16:46.728Z,99907.78
2024-05-09T09:19:33.268Z,99898.25
2024-05-09T09:22:21.693Z,99943.22
2024-05-09T09:25:07.958Z,99921.53
2024-05-09T09:27:54.332Z,99950.91
2024-05-09T09:30:41.640Z,99947.25
2024-05-09T09:33:31.255Z,99932.91
2024-05-09T09:36:18.481Z,99927.31
2024-05-09T09:39:05.300Z,99921.78
2024-05-09T09:41:52.576Z,99901.81
2024-05-09T09:44:42.275Z,99930.09
2024-05-09T09:47:32.598Z,99900.38
2024-05-09T09:50:27.343Z,99891.41
2024-05-09T09:53:19.505Z,99862.59
2024-05-09T09:56:08.049Z,99897.69
2024-05-09T09:58:57.616Z,99864.16
2024-05-09T10:01:47.377Z,99864.78
2024-05-09T10:04:33.829Z,99925.25
2024-05-09T10:07:22.238Z,99907.34
2024-05-09T10:10:13.769Z,99902.31
2024-05-09T10:13:05.878Z,99871.06
2024-05-09T10:15:54.679Z,99884.81
2024-05-09T10:18:41.803Z,99921.00
2024-05-09T10:21:28.762Z,99867.06
2024-05-09T10:24:18.908Z,99889.22
2024-05-09T10:27:05.208Z,99893.13
2024-05-09T10:29:53.227Z,99852.06
2024-05-09T10:32:41.244Z,99893.78
2024-05-09T10:35:32.537Z,99893.56
2024-05-09T10:38:18.848Z,99896.47
2024-05-09T10:41:06.726Z,99894.41
2024-05-09T10:43:53.213Z,99891.22
2024-05-09T10:46:39.815Z,99836.94
2024-05-09T10:49:26.491Z,99885.31
2024-05-09T10:52:13.038Z,99884.09
2024-05-09T10:55:01.042Z,99869.72
2024-05-09T10:57:48.230Z,99828.84
2024-05-09T11:00:36.524Z,99876.22
2024-05-09T11:03:24.768Z,99880.72
2024-05-09T11:06:11.890Z,99847.03
2024-05-09T11:08:58.533Z,99830.16
2024-05-09T11:11:45.388Z,99861.50
2024-05-09T11:14:32.184Z,99841.31
2024-05-09T11:17:19.181Z,99871.72
2024-05-09T11:20:13.396Z,99821.13
2024-05-09T11:23:09.311Z,99872.13
2024-05-09T11:25:57.956Z,99860.38
2024-05-09T11:28:45.688Z,99848.19
2024-05-09T11:31:32.761Z,99840.06
2024-05-09T11:34:19.413Z,99862.81
2024-05-09T11:37:05.762Z,99861.34
2024-05-09T11:39:53.854Z,99809.41
2024-05-09T11:42:40.527Z,99808.75
2024-05-09T11:45:27.110Z,99843.84
2024-05-09T11:48:13.823Z,99846.91
2024-05-09T11:51:00.342Z,99827.16
2024-05-09T11:53:46.964Z,99832.78
2024-05-09T11:56:33.626Z,99848.72
2024-05-09T11:59:19.881Z,99830.94
2024-05-09T12:02:06.555Z,99806.59
2024-05-09T12:04:53.074Z,99806.50
2024-05-09T12:07:39.834Z,99808.81
2024-05-09T12:10:32.489Z,99822.03
2024-05-09T12:13:21.682Z,99824.53
2024-05-09T12:16:08.811Z,99803.00
2024-05-09T12:18:56.215Z,99753.31
2024-05-09T12:21:42.605Z,99794.03
2024-05-09T12:24:30.501Z,99796.91
2024-05-09T12:27:16.790Z,99793.63
2024-05-09T12:30:04.630Z,99810.88
2024-05-09T12:32:53.573Z,99787.53
2024-05-09T12:35:41.094Z,99793.53
2024-05-09T12:38:28.188Z,99800.19
2024-05-09T12:41:14.864Z,99800.16
2024-05-09T12:44:01.421Z,99782.34
2024-05-09T12:46:48.031Z,99767.41
2024-05-09T12:49:35.010Z,99785.41
2024-05-09T12:52:21.298Z,99759.88
2024-05-09T12:55:08.259Z,99783.75
2024-05-09T12:57:54.600Z,99744.97
2024-05-09T13:00:41.086Z,99776.28
2024-05-09T13:03:27.624Z,99741.78
2024-05-09T13:06:14.064Z,99742.63
2024-05-09T13:09:00.740Z,99736.84
2024-05-09T13:11:47.594Z,99771.94
2024-05-09T13:14:34.337Z,99760.81
2024-05-09T13:17:20.706Z,99762.78
2024-05-09T13:20:11.982Z,99765.81
2024-05-09T13:23:06.724Z,99707.06
2024-05-09T13:25:54.312Z,99733.84
2024-05-09T13:28:41.220Z,99749.63
2024-05-09T13:31:27.589Z,99752.13
2024-05-09T13:34:14.201Z,99742.94
2024-05-09T13:37:00.883Z,99738.63
2024-05-09T13:39:47.168Z,99741.00
2024-05-09T13:42:33.902Z,99726.66
2024-05-09T13:45:20.616Z,99728.34
2024-05-09T13:48:09.554Z,99721.88
2024-05-09T13:50:56.027Z,99728.88
2024-05-09T13:53:42.336Z,99692.78
2024-05-09T13:56:28.940Z,99701.88
2024-05-09T13:59:15.612Z,99692.88
2024-05-09T14:02:02.508Z,99707.31
2024-05-09T14:04:49.090Z,99651.38
2024-05-09T14:07:35.520Z,99686.34
2024-05-09T14:10:28.485Z,99636.66
2024-05-09T14:13:17.407Z,99676.97
2024-05-09T14:16:04.132Z,99666.22
2024-05-09T14:18:50.377Z,99686.84
2024-05-09T14:21:37.130Z,99636.50
2024-05-09T14:24:23.728Z,99673.34
2024-05-09T14:27:10.308Z,99676.31
2024-05-09T14:29:57.008Z,99685.09
2024-05-09T14:32:43.670Z,99677.66
2024-05-09T14:35:30.411Z,99678.19
2024-05-09T14:38:17.039Z,99632.78
2024-05-09T14:41:03.989Z,99634.63
2024-05-09T14:43:50.483Z,99670.00
2024-05-09T14:46:36.948Z,99660.34
2024-05-09T14:49:23.605Z,99669.91
2024-05-09T14:52:10.312Z,99658.63
2024-05-09T14:55:00.348Z,99605.94
2024-05-09T14:57:47.543Z,99628.13
2024-05-09T15:00:36.693Z,99656.75
2024-05-09T15:03:24.303Z,99655.66
2024-05-09T15:06:10.982Z,99639.16
2024-05-09T15:08:57.802Z,99631.53
2024-05-09T15:11:44.221Z,99643.94
2024-05-09T15:14:30.579Z,99639.41
2024-05-09T15:17:17.339Z,99644.19
2024-05-09T15:20:09.092Z,99632.69
2024-05-09T15:22:56.392Z,99625.41
2024-05-09T15:25:44.718Z,99626.16
2024-05-09T15:28:31.285Z,99620.84
2024-05-09T15:31:18.144Z,99562.06
2024-05-09T15:34:05.102Z,99607.50
2024-05-09T15:36:51.752Z,99624.59
2024-05-09T15:39:38.352Z,99620.94
2024-05-09T15:42:24.866Z,99560.03
2024-05-09T15:45:11.355Z,99610.59
2024-05-09T15:47:58.556Z,99630.41
2024-05-09T15:50:45.389Z,99628.47
2024-05-09T15:53:31.845Z,99607.97
2024-05-09T15:56:18.479Z,99583.06
2024-05-09T15:59:04.957Z,99564.84
2024-05-09T16:01:51.501Z,99580.81
2024-05-09T16:04:38.400Z,99593.22
2024-05-09T16:07:25.178Z,99586.22
2024-05-09T16:10:19.701Z,99611.41
2024-05-09T16:13:07.014Z,99550.75
2024-05-09T16:15:54.130Z,99616.84
2024-05-09T16:18:40.885Z,99588.41
2024-05-09T16:21:27.066Z,99564.84
2024-05-09T16:24:13.877Z,99598.28
2024-05-09T16:27:00.318Z,99574.78
2024-05-09T16:29:46.699Z,99599.53
2024-05-09T16:32:33.545Z,99564.75
2024-05-09T16:35:19.883Z,99581.53
2024-05-09T16:38:06.973Z,99610.28
2024-05-09T16:40:53.879Z,99589.94
2024-05-09T16:43:40.284Z,99594.56
2024-05-09T16:46:28.134Z,99604.31
2024-05-09T16:49:14.539Z,99573.03
2024-05-09T16:52:00.819Z,99552.41
2024-05-09T16:54:47.475Z,99594.59
2024-05-09T16:57:34.135Z,99584.69
2024-05-09T17:00:31.099Z,99582.19
2024-05-09T17:03:25.772Z,99611.84
2024-05-09T17:06:12.294Z,99581.28
2024-05-09T17:09:07.970Z,99569.31
2024-05-09T17:11:57.942Z,99605.81
2024-05-09T17:14:45.200Z,99597.31
2024-05-09T17:17:31.695Z,99575.97
2024-05-09T17:20:28.900Z,99604.63
2024-05-09T17:23:20.249Z,99603.66
2024-05-09T17:26:06.600Z,99562.50
2024-05-09T17:28:53.271Z,99596.69
2024-05-09T17:31:39.791Z,99601.88
2024-05-09T17:34:26.986Z,99612.44
2024-05-09T17:37:13.804Z,99581.25
2024-05-09T17:40:00.385Z,99579.31
2024-05-09T17:42:46.864Z,99587.72
2024-05-09T17:45:33.826Z,99596.81
2024-05-09T17:48:20.853Z,99538.88
2024-05-09T17:51:07.401Z,99584.28
2024-05-09T17:53:53.960Z,99601.00
2024-05-09T17:56:40.839Z,99543.94
2024-05-09T17:59:28.264Z,99605.44
2024-05-09T18:02:14.931Z,99591.34
2024-05-09T18:05:01.811Z,99595.06
2024-05-09T18:07:48.380Z,99589.03
2024-05-09T18:10:38.545Z,99541.75
2024-05-09T18:13:26.857Z,99589.56
2024-05-09T18:16:14.009Z,99557.06
2024-05-09T18:19:00.587Z,99578.59
2024-05-09T18:21:46.936Z,99596.44
2024-05-09T18:24:33.707Z,99517.66
2024-05-09T18:27:20.430Z,99599.00
2024-05-09T18:30:21.224Z,99545.81
2024-05-09T18:33:14.547Z,99610.81
2024-05-09T18:36:01.756Z,99560.84
2024-05-09T18:38:49.323Z,99590.34
2024-05-09T18:41:35.702Z,99580.94
2024-05-09T18:44:22.288Z,99542.25
2024-05-09T18:47:10.394Z,99605.50
2024-05-09T18:49:57.014Z,99609.16
2024-05-09T18:52:43.600Z,99552.41
2024-05-09T18:55:30.141Z,99619.81
2024-05-09T18:58:17.719Z,99614.84
2024-05-09T19:01:04.493Z,99597.66
2024-05-09T19:03:51.495Z,99601.22
2024-05-09T19:06:38.870Z,99627.13
2024-05-09T19:09:25.144Z,99592.84
2024-05-09T19:12:12.092Z,99599.81
2024-05-09T19:14:58.451Z,99598.28
2024-05-09T19:17:45.115Z,99607.09
2024-05-09T19:20:34.670Z,99612.44
2024-05-09T19:23:22.851Z,99623.00
2024-05-09T19:26:09.931Z,99580.97
2024-05-09T19:28:56.633Z,99609.72
2024-05-09T19:31:43.290Z,99625.53
2024-05-09T19:34:29.869Z,99592.03
2024-05-09T19:37:16.465Z,99645.81
2024-05-09T19:40:03.516Z,99587.13
2024-05-09T19:42:52.097Z,99627.88
2024-05-09T19:45:38.890Z,99642.63
2024-05-09T19:48:25.453Z,99645.28
2024-05-09T19:51:12.039Z,99635.81
2024-05-09T19:53:58.644Z,99656.63
2024-05-09T19:56:45.359Z,99627.22
2024-05-09T19:59:31.858Z,99608.16
2024-05-09T20:02:18.518Z,99639.31
2024-05-09T20:05:05.611Z,99608.19
2024-05-09T20:07:51.949Z,99608.09
2024-05-09T20:10:38.998Z,99586.50
2024-05-09T20:13:25.348Z,99637.50
2024-05-09T20:16:12.003Z,99631.47
2024-05-09T20:18:58.733Z,99631.41
2024-05-09T20:21:45.436Z,99598.50
2024-05-09T20:24:31.944Z,99665.19
2024-05-09T20:27:18.313Z,99667.75
2024-05-09T20:30:09.748Z,99660.81
2024-05-09T20:32:58.479Z,99658.19
2024-05-09T20:35:45.239Z,99664.16
2024-05-09T20:38:31.393Z,99610.41
2024-05-09T20:41:18.079Z,99661.47
2024-05-09T20:44:04.839Z,99616.41
2024-05-09T20:46:51.114Z,99670.06
2024-05-09T20:49:37.991Z,99655.28
2024-05-09T20:52:24.658Z,99670.78
2024-05-09T20:55:10.948Z,99668.16
2024-05-09T20:57:57.945Z,99672.38
2024-05-09T21:00:46.082Z,99657.66
2024-05-09T21:03:38.095Z,99650.66
2024-05-09T21:06:24.327Z,99673.13
2024-05-09T21:09:10.876Z,99640.16
2024-05-09T21:11:57.581Z,99600.19
2024-05-09T21:14:44.498Z,99652.94
2024-05-09T21:17:31.232Z,99647.66
2024-05-09T21:20:23.905Z,99661.47
2024-05-09T21:23:15.570Z,99657.03
2024-05-09T21:26:02.098Z,99659.50
2024-05-09T21:28:48.657Z,99641.22
2024-05-09T21:31:35.630Z,99612.59
2024-05-09T21:34:22.273Z,99638.50
2024-05-09T21:37:08.854Z,99599.34
2024-05-09T21:39:55.439Z,99649.59
2024-05-09T21:42:42.112Z,99646.88
2024-05-09T21:45:28.648Z,99610.34
2024-05-09T21:48:15.548Z,99664.25
2024-05-09T21:51:01.846Z,99635.53
2024-05-09T21:53:49.035Z,99663.25
2024-05-09T21:56:35.279Z,99661.38
2024-05-09T21:59:22.008Z,99657.16
2024-05-09T22:02:09.098Z,99627.16
2024-05-09T22:04:56.208Z,99576.00
2024-05-09T22:07:43.060Z,99592.19
2024-05-09T22:10:34.262Z,99641.28
2024-05-09T22:13:22.936Z,99628.13
2024-05-09T22:16:09.589Z,99637.63
2024-05-09T22:18:56.530Z,99663.44
2024-05-09T22:21:43.024Z,99636.41
2024-05-09T22:24:29.234Z,99658.88
2024-05-09T22:27:15.729Z,99651.91
2024-05-09T22:30:02.830Z,99642.22
2024-05-09T22:32:50.283Z,99656.06
2024-05-09T22:35:36.984Z,99654.41
2024-05-09T22:38:23.819Z,99624.00
2024-05-09T22:41:10.354Z,99661.16
2024-05-09T22:43:57.107Z,99637.63
2024-05-09T22:46:43.614Z,99660.91
2024-05-09T22:49:29.915Z,99654.13
2024-05-09T22:52:16.709Z,99631.53
2024-05-09T22:55:03.656Z,99629.75
2024-05-09T22:57:50.334Z,99640.84
2024-05-09T23:00:37.157Z,99602.41
2024-05-09T23:03:23.758Z,99650.03
2024-05-09T23:06:10.289Z,99583.94
2024-05-09T23:08:56.847Z,99637.59
2024-05-09T23:11:45.114Z,99663.53
2024-05-09T23:14:31.603Z,99653.00
2024-05-09T23:17:19.280Z,99638.31
2024-05-09T23:20:08.877Z,99648.97
2024-05-09T23:22:57.645Z,99660.19
2024-05-09T23:25:44.653Z,99655.63
2024-05-09T23:28:31.735Z,99657.28
2024-05-09T23:31:18.257Z,99666.38
2024-05-09T23:34:04.971Z,99622.91
2024-05-09T23:36:51.437Z,99650.00
2024-05-09T23:39:38.065Z,99656.69
2024-05-09T23:42:24.754Z,99654.06
2024-05-09T23:45:11.247Z,99653.13
2024-05-09T23:47:57.972Z,99625.25
2024-05-09T23:50:44.479Z,99664.97
2024-05-09T23:53:31.035Z,99650.25
2024-05-09T23:56:18.612Z,99661.56
2024-05-09T23:59:05.167Z,99657.28
